Weather at Sedalia Memorial Airport

Public forecast

Using degrees Fahrenheit for public forecast. Weather courtesy of forecast.io.

Current aviation weather report (METAR) for Sedalia Memorial Airport

Retrieved 2020/09/21 06:53 UTC (32 minutes ago):

KDMO 210653Z AUTO 16005KT 10SM CLR 12/08 A3028 RMK AO2 SLP250 T01170083

Closest aviation forecast (TAF) to Sedalia Memorial Airport

Closest forecast is Whiteman Air Force Base, 17.5 nm (32.4 km) W. Retrieved 2020-09-21 03:09 UTC (4 hours ago):

TAF KSZL 202103Z 2103/2209 13009KT 9999 FEW200 QNH3021INS BECMG 2206/2207 15009KT 9999 FEW025 FEW200 QNH3018INS TX25/2120Z TN13/2109Z